createdAt,value
2022-11-23T00:04:41.530Z,0.00
2022-11-23T00:09:41.673Z,0.00
2022-11-23T00:14:41.406Z,0.00
2022-11-23T00:19:41.624Z,0.00
2022-11-23T00:24:41.303Z,0.00
2022-11-23T00:29:41.375Z,0.00
2022-11-23T00:34:41.147Z,0.00
2022-11-23T00:39:48.854Z,0.00
2022-11-23T00:44:41.083Z,0.00
2022-11-23T00:49:44.022Z,0.00
2022-11-23T00:54:41.036Z,0.00
2022-11-23T00:59:41.249Z,0.00
2022-11-23T01:04:40.739Z,0.00
2022-11-23T01:09:40.806Z,0.00
2022-11-23T01:14:40.665Z,0.00
2022-11-23T01:19:40.584Z,0.00
2022-11-23T01:24:40.461Z,0.00
2022-11-23T01:29:41.610Z,0.00
2022-11-23T01:34:40.391Z,0.00
2022-11-23T01:39:40.321Z,0.00
2022-11-23T01:44:40.214Z,0.00
2022-11-23T01:49:43.214Z,0.00
2022-11-23T01:54:40.344Z,0.00
2022-11-23T01:59:40.177Z,0.00
2022-11-23T02:04:40.134Z,0.00
2022-11-23T02:09:40.001Z,0.00
2022-11-23T02:14:39.951Z,0.00
2022-11-23T02:19:39.954Z,0.00
2022-11-23T02:24:39.824Z,0.00
2022-11-23T02:29:39.679Z,0.00
2022-11-23T02:34:39.674Z,0.00
2022-11-23T02:39:40.330Z,0.00
2022-11-23T02:44:39.600Z,0.00
2022-11-23T02:49:42.461Z,0.00
2022-11-23T02:54:39.406Z,0.00
2022-11-23T02:59:39.414Z,0.00
2022-11-23T03:04:39.206Z,0.00
2022-11-23T03:09:46.735Z,0.00
2022-11-23T03:14:39.034Z,0.00
2022-11-23T03:19:39.431Z,0.00
2022-11-23T03:24:38.999Z,0.00
2022-11-23T03:29:38.890Z,0.00
2022-11-23T03:34:38.820Z,0.00
2022-11-23T03:39:42.862Z,0.00
2022-11-23T03:44:40.416Z,0.00
2022-11-23T03:49:41.680Z,0.00
2022-11-23T03:54:38.635Z,0.00
2022-11-23T03:59:38.581Z,0.00
2022-11-23T04:04:38.556Z,0.00
2022-11-23T04:09:38.477Z,0.00
2022-11-23T04:14:38.324Z,0.00
2022-11-23T04:19:38.245Z,0.00
2022-11-23T04:24:38.185Z,0.00
2022-11-23T04:29:38.129Z,0.00
2022-11-23T04:34:38.079Z,0.00
2022-11-23T04:39:38.109Z,0.00
2022-11-23T04:44:37.974Z,0.00
2022-11-23T04:49:41.704Z,0.00
2022-11-23T04:54:37.745Z,0.00
2022-11-23T05:00:48.744Z,0.00
2022-11-23T05:05:56.545Z,0.00
2022-11-23T05:10:48.444Z,0.00
2022-11-23T05:15:48.414Z,0.00
2022-11-23T05:20:48.380Z,0.00
2022-11-23T05:25:48.361Z,0.00
2022-11-23T05:30:48.286Z,0.00
2022-11-23T05:35:48.323Z,0.00
2022-11-23T05:40:48.199Z,0.00
2022-11-23T05:45:55.959Z,0.00
2022-11-23T05:50:50.940Z,0.00
2022-11-23T05:55:48.013Z,0.00
2022-11-23T06:00:47.814Z,0.00
2022-11-23T06:05:47.793Z,0.00
2022-11-23T06:10:47.738Z,4.00
2022-11-23T06:15:47.979Z,4.00
2022-11-23T06:20:47.711Z,8.00
2022-11-23T06:25:47.629Z,20.00
2022-11-23T06:30:47.507Z,40.00
2022-11-23T06:35:47.498Z,80.00
2022-11-23T06:40:47.363Z,156.00
2022-11-23T06:45:47.293Z,236.00
2022-11-23T06:50:50.294Z,376.00
2022-11-23T06:55:47.160Z,540.00
2022-11-23T07:00:47.192Z,752.00
2022-11-23T07:05:46.954Z,940.00
2022-11-23T07:10:47.069Z,1120.00
2022-11-23T07:15:46.918Z,1332.00
2022-11-23T07:20:47.336Z,1688.00
2022-11-23T07:25:46.756Z,1640.00
2022-11-23T07:30:46.679Z,2008.00
2022-11-23T07:35:46.576Z,2320.00
2022-11-23T07:40:46.698Z,2476.00
2022-11-23T07:45:46.839Z,2476.00
2022-11-23T07:50:49.815Z,2764.00
2022-11-23T07:55:46.484Z,2664.00
2022-11-23T08:00:46.293Z,2268.00
2022-11-23T08:05:46.275Z,2092.00
2022-11-23T08:10:51.611Z,2352.00
2022-11-23T08:15:53.446Z,3396.00
2022-11-23T08:20:47.040Z,3832.00
2022-11-23T08:25:46.059Z,3696.00
2022-11-23T08:30:45.984Z,3712.00
2022-11-23T08:35:45.873Z,3632.00
2022-11-23T08:40:45.899Z,3396.00
2022-11-23T08:45:45.827Z,3576.00
2022-11-23T08:50:48.662Z,3584.00
2022-11-23T08:55:45.714Z,3876.00
2022-11-23T09:00:45.549Z,3592.00
2022-11-23T09:05:45.673Z,4240.00
2022-11-23T09:10:45.378Z,4256.00
2022-11-23T09:15:45.301Z,4636.00
2022-11-23T09:20:45.358Z,4968.00
2022-11-23T09:25:45.542Z,4444.00
2022-11-23T09:30:45.144Z,4904.00
2022-11-23T09:35:45.016Z,5052.00
2022-11-23T09:40:45.134Z,4716.00
2022-11-23T09:45:45.062Z,5244.00
2022-11-23T09:50:47.920Z,6044.00
2022-11-23T09:55:52.732Z,6164.00
2022-11-23T10:00:44.775Z,6248.00
2022-11-23T10:05:44.690Z,5892.00
2022-11-23T10:10:44.562Z,5588.00
2022-11-23T10:15:44.570Z,5688.00
2022-11-23T10:20:44.460Z,5172.00
2022-11-23T10:25:44.499Z,5040.00
2022-11-23T10:30:44.544Z,5536.00
2022-11-23T10:35:44.285Z,5592.00
2022-11-23T10:40:44.177Z,5220.00
2022-11-23T10:45:44.285Z,5416.00
2022-11-23T10:50:47.161Z,5540.00
2022-11-23T10:55:44.020Z,5372.00
2022-11-23T11:00:44.150Z,5300.00
2022-11-23T11:06:08.160Z,5408.00
2022-11-23T11:10:44.984Z,5176.00
2022-11-23T11:15:47.560Z,4900.00
2022-11-23T11:20:43.804Z,5080.00
2022-11-23T11:25:43.565Z,4748.00
2022-11-23T11:30:44.252Z,3992.00
2022-11-23T11:35:43.503Z,3984.00
2022-11-23T11:40:43.611Z,4248.00
2022-11-23T11:45:54.500Z,3904.00
2022-11-23T11:50:47.335Z,4620.00
2022-11-23T11:55:43.285Z,4980.00
2022-11-23T12:00:45.165Z,4728.00
2022-11-23T12:05:43.084Z,4800.00
2022-11-23T12:10:43.194Z,4412.00
2022-11-23T12:15:50.812Z,3796.00
2022-11-23T12:20:43.939Z,4168.00
2022-11-23T12:25:42.819Z,3884.00
2022-11-23T12:30:42.771Z,3540.00
2022-11-23T12:35:42.761Z,4052.00
2022-11-23T12:40:42.811Z,3920.00
2022-11-23T12:45:42.568Z,3960.00
2022-11-23T12:50:45.564Z,3360.00
2022-11-23T12:55:42.556Z,2600.00
2022-11-23T13:00:42.659Z,3684.00
2022-11-23T13:05:42.406Z,3488.00
2022-11-23T13:10:42.344Z,3348.00
2022-11-23T13:15:42.219Z,3336.00
2022-11-23T13:20:42.225Z,3328.00
2022-11-23T13:25:42.145Z,3136.00
2022-11-23T13:35:43.207Z,2784.00
2022-11-23T13:40:41.969Z,2492.00
2022-11-23T13:45:42.516Z,2524.00
2022-11-23T13:50:44.817Z,2416.00
2022-11-23T13:55:41.683Z,2296.00
2022-11-23T14:00:49.522Z,2100.00
2022-11-23T14:05:49.025Z,1772.00
2022-11-23T14:10:41.640Z,1636.00
2022-11-23T14:15:41.502Z,1540.00
2022-11-23T14:20:41.473Z,1456.00
2022-11-23T14:25:41.372Z,1384.00
2022-11-23T14:30:41.345Z,1300.00
2022-11-23T14:35:41.170Z,1204.00
2022-11-23T14:40:41.360Z,1104.00
2022-11-23T14:45:41.396Z,984.00
2022-11-23T14:50:44.131Z,864.00
2022-11-23T14:55:40.945Z,736.00
2022-11-23T15:00:41.132Z,604.00
2022-11-23T15:05:40.783Z,472.00
2022-11-23T15:10:40.784Z,340.00
2022-11-23T15:15:40.645Z,228.00
2022-11-23T15:20:40.740Z,136.00
2022-11-23T15:25:40.501Z,76.00
2022-11-23T15:30:40.484Z,40.00
2022-11-23T15:35:40.433Z,20.00
2022-11-23T15:40:40.447Z,12.00
2022-11-23T15:45:40.409Z,4.00
2022-11-23T15:50:43.254Z,4.00
2022-11-23T15:55:40.174Z,0.00
2022-11-23T16:00:40.347Z,0.00
2022-11-23T16:05:40.016Z,0.00
2022-11-23T16:10:40.050Z,0.00
2022-11-23T16:15:39.948Z,0.00
2022-11-23T16:20:39.902Z,0.00
2022-11-23T16:25:39.812Z,0.00
2022-11-23T16:30:39.988Z,0.00
2022-11-23T16:35:39.738Z,0.00
2022-11-23T16:40:39.660Z,0.00
2022-11-23T16:45:39.556Z,0.00
2022-11-23T16:50:42.454Z,0.00
2022-11-23T16:55:43.614Z,0.00
2022-11-23T17:00:39.342Z,0.00
2022-11-23T17:05:39.282Z,0.00
2022-11-23T17:10:39.807Z,0.00
2022-11-23T17:15:39.128Z,0.00
2022-11-23T17:20:39.275Z,0.00
2022-11-23T17:25:39.159Z,0.00
2022-11-23T17:30:39.134Z,0.00
2022-11-23T17:35:38.981Z,0.00
2022-11-23T17:40:38.847Z,0.00
2022-11-23T17:45:38.876Z,0.00
2022-11-23T17:50:41.704Z,0.00
2022-11-23T17:55:38.890Z,0.00
2022-11-23T18:00:38.595Z,0.00
2022-11-23T18:05:38.441Z,0.00
2022-11-23T18:10:38.609Z,0.00
2022-11-23T18:15:38.549Z,0.00
2022-11-23T18:20:38.298Z,0.00
2022-11-23T18:25:38.294Z,0.00
2022-11-23T18:30:38.251Z,0.00
2022-11-23T18:35:38.155Z,0.00
2022-11-23T18:40:38.137Z,0.00
2022-11-23T18:45:37.954Z,0.00
2022-11-23T18:50:41.275Z,0.00
2022-11-23T18:55:37.845Z,0.00
2022-11-23T19:00:37.853Z,0.00
2022-11-23T19:05:37.682Z,0.00
2022-11-23T19:10:37.910Z,0.00
2022-11-23T19:15:37.583Z,0.00
2022-11-23T19:20:37.637Z,0.00
2022-11-23T19:25:37.479Z,0.00
2022-11-23T19:30:37.397Z,0.00
2022-11-23T19:35:37.346Z,0.00
2022-11-23T19:40:37.277Z,0.00
2022-11-23T19:45:37.409Z,0.00
2022-11-23T19:50:40.220Z,0.00
2022-11-23T19:55:37.101Z,0.00
2022-11-23T20:00:37.095Z,0.00
2022-11-23T20:05:37.006Z,0.00
2022-11-23T20:10:36.895Z,0.00
2022-11-23T20:15:36.920Z,0.00
2022-11-23T20:20:36.769Z,0.00
2022-11-23T20:25:36.800Z,0.00
2022-11-23T20:30:36.698Z,0.00
2022-11-23T20:35:36.545Z,0.00
2022-11-23T20:40:36.625Z,0.00
2022-11-23T20:45:36.644Z,0.00
2022-11-23T20:50:39.411Z,0.00
2022-11-23T20:55:44.849Z,0.00
2022-11-23T21:00:51.324Z,0.00
2022-11-23T21:06:58.849Z,0.00
2022-11-23T21:11:58.729Z,0.00
2022-11-23T21:16:58.962Z,0.00
2022-11-23T21:21:58.502Z,0.00
2022-11-23T21:26:58.430Z,0.00
2022-11-23T21:32:06.454Z,0.00
2022-11-23T21:37:05.753Z,0.00
2022-11-23T21:41:58.331Z,0.00
2022-11-23T21:46:58.281Z,0.00
2022-11-23T21:51:58.101Z,0.00
2022-11-23T21:57:01.063Z,0.00
2022-11-23T22:01:58.150Z,0.00
2022-11-23T22:06:57.913Z,0.00
2022-11-23T22:14:17.844Z,0.00
2022-11-23T22:19:17.489Z,0.00
2022-11-23T22:24:17.591Z,0.00
2022-11-23T22:29:17.374Z,0.00
2022-11-23T22:34:17.485Z,0.00
2022-11-23T22:39:17.341Z,0.00
2022-11-23T22:44:17.283Z,0.00
2022-11-23T22:49:17.290Z,0.00
2022-11-23T22:54:17.079Z,0.00
2022-11-23T22:59:17.034Z,0.00
2022-11-23T23:04:19.963Z,0.00
2022-11-23T23:09:17.194Z,0.00
2022-11-23T23:18:21.064Z,0.00
2022-11-23T23:23:20.889Z,0.00
2022-11-23T23:28:20.810Z,0.00
2022-11-23T23:33:20.827Z,0.00
2022-11-23T23:38:21.264Z,0.00
2022-11-23T23:43:20.675Z,0.00
2022-11-23T23:50:11.783Z,0.00
2022-11-23T23:55:11.576Z,0.00
